Share

Enid, OK

12:48 AM CDT on April 25, 2014 (GMT -0500)
Vance Air Force Base (KEND) Elev 1306 ft | 36.34 °N, 97.92 °W | Change Station

Current weather conditions updated 50 minutes ago

Clear
Clear
56 °F
Feels Like 56 °F
N
9
Wind Variable Wind from SSE
Sunrise 6:45 AM
Sunset 8:14 PM
Moon Waning Crescent

Today is forecast to be Much Warmer than yesterday. Late night thunderstorms tomorrow night.

Pressure 29.92 in
Visibility 10.0 miles
Clouds Clear
Dew Point 42 °F
Humidity 60%
Rainfall 0.00 in
Snow Depth Not available.
UV 0 out of 16
Pollen 8.60 out of 12
Air Quality Not available.
Flu Activity Regional
METAR KEND 250458Z AUTO 16008KT 10SM CLR 13/05 A2993 RMK AO2 SLP131 T01310054 $

More Conditions Fewer Conditions

Pressure 29.92 in
Visibility 10.0 miles
Clouds Clear
Dew Point 42 °F
Humidity 60%
Rainfall 0.00 in
Snow Depth Not available.
UV 0 out of 16
Pollen 8.60 out of 12
Air Quality Not available.
Flu Activity Regional
METAR KEND 250458Z AUTO 16008KT 10SM CLR 13/05 A2993 RMK AO2 SLP131 T01310054 $

More Conditions Fewer Conditions

10-Day Weather Forecast

Almanac

Astronomy

Apr. 25, 2014 Rise Set
Actual Time 6:45 AM CDT 8:14 PM CDT
Civil Twilight 6:17 AM CDT 8:41 PM CDT
Nautical Twilight 5:45 AM CDT 9:14 PM CDT
Astronomical Twilight 5:11 AM CDT 9:48 PM CDT
Moon 4:27 AM CDT 4:44 PM CDT
Length of Visible Light 14h 23m
Length of Day
13h 29m
Tomorrow will be 2m 4s longer.
Waning Crescent, 19% of the Moon is Illuminated
Today
Waning Crescent
Apr 29
New
May 6
First Quarter
May 14
Full
May 21
Last Quarter

Today's Extremes

State Highs State Lows

Community

  • Deer in evening light
    Deer in evening light
  • Critter
    Critter
  • Jone Runs Falls
    Jone Runs Falls
  • Easter in Shenandoah National Park
    Easter in Shenandoah National Park
  • Sunset at Apalachicola Bay, Florida
    Sunset at Apalachicola Bay, Florida

WunderPhotos

Upload Photos

1,704,861 photos uploaded!

WunderBlogs® & News

Nearby

Snow Depth

Station Depth Elevation
No new snow has been reported.

Coastal Water Temperatures

Place Temperature
No Stations Reporting

Earthquake Activity

City Distance Mag. Time & Date
Guthrie, Oklahoma 48 miles 3.7 2:31 PM CDT
2014-04-20
Edmond, Oklahoma 48 miles 4.0 2:07 PM CDT
2014-04-20
Stillwater, Oklahoma 51 miles 2.8 5:30 PM CDT
2014-04-19
Enid, Oklahoma 13 miles 2.9 1:11 PM CDT
2014-04-19
Minimum magnitude displayed is 2.5.

Nearby Weather Stations

Station Location Temp. Dew Point Humidity Wind Precip. Elev Updated Type
garber, Garber, OK 52.9 °F 34 °F 48% South  at  4.3 mph 0.00 in / hr 1204 ft 12:48 AM CDT Rapid Fire
MesoWest PNDCRK , Pond Creek, OK 51 °F - - North  at  - 0.00 in / hr 1068 ft 11:55 PM CDT MADIS
DDMET Ringwood, OK, Ringwood, OK 53 °F 35 °F 50% North  at  - 0.00 in / hr 1376 ft 11:27 PM CDT MADIS

Show More Stations Show Fewer Stations

What do you think?

We're not finished. Please let us know what you like, what you don't like, and what you are still missing.